Overview Statistics Trail Chart Weather Telemetry Raw packets
 

This is the latest recevied weather packets stored in our database for station/object DO1BDB-12. If no packets are shown the sender has not sent any weather packets the latest 10 day(s).

<< 473 474 475 476 477 478 479 >>
Time Temp. Humidity Pressure Rain* Wind** Luminosity Snow
1787810843 22.22° C 55% 102.1 hPa - - - -
1787810778 20.56° C 58% 102.1 hPa - - - -
1787810712 20° C 59% 102.1 hPa - - - -
1787810646 21.11° C 57% 102.1 hPa - - - -
1787810580 19.44° C 61% 102.1 hPa - - - -
1787810514 18.89° C 62% 102.1 hPa - - - -
1787810448 20° C 59% 102.1 hPa - - - -
1787810383 21.11° C 57% 102.1 hPa - - - -
1787810317 18.89° C 62% 102.1 hPa - - - -
1787810251 20.56° C 57% 102.1 hPa - - - -
1787810185 20.56° C 57% 102.1 hPa - - - -
1787810119 22.22° C 54% 102.1 hPa - - - -
1787810053 21.11° C 55% 102.1 hPa - - - -
1787809988 21.67° C 55% 102.1 hPa - - - -
1787809922 22.78° C 54% 102.1 hPa - - - -
1787809856 22.22° C 56% 102.1 hPa - - - -
1787809790 21.67° C 57% 102.1 hPa - - - -
1787809724 20° C 60% 102.1 hPa - - - -
1787809658 20° C 59% 102.1 hPa - - - -
1787809593 20.56° C 58% 102.1 hPa - - - -
1787809527 19.44° C 61% 102.1 hPa - - - -
1787809461 20° C 61% 102.1 hPa - - - -
1787809395 19.44° C 62% 102.1 hPa - - - -
1787809329 19.44° C 63% 102.1 hPa - - - -
1787809263 18.89° C 63% 102.1 hPa - - - -

* Rain since midnight (hover to see other rain measurements)
** Current wind speed in m/s (hover to see current wind gust speed)